Time;durP1;ratioP1;P1;durP2;ratioP2;P2;SDS_P1;SDS_P2;PMS_P1;PMS_P2;Temp;Humidity;BMP_temperature;BMP_pressure;BME280_temperature;BME280_humidity;BME280_pressure;Samples;Min_cycle;Max_cycle;Signal;HPM_P1;HPM_P2
2022/01/31 00:00:54;;;;;;;;;10.50;10.25;;;;;-147.17;100.00;50560.56;5009565;28;51914;-58
2022/01/31 00:03:20;;;;;;;;;8.50;8.25;;;;;-147.17;100.00;50564.50;5011228;28;51183;-59
2022/01/31 00:05:46;;;;;;;;;8.00;7.00;;;;;-147.17;100.00;50536.94;5009737;28;53655;-57
2022/01/31 00:08:12;;;;;;;;;10.50;9.25;;;;;-147.17;100.00;50529.06;5014098;28;51443;-58
2022/01/31 00:10:37;;;;;;;;;9.50;8.25;;;;;-147.17;100.00;50536.94;5009874;28;52737;-59
2022/01/31 00:13:13;;;;;;;;;10.00;9.00;;;;;-147.17;100.00;50584.19;5015083;28;50969;-58
2022/01/31 00:15:42;;;;;;;;;5.50;4.00;;;;;-147.17;100.00;50568.44;5009919;28;52575;-58
2022/01/31 00:18:08;;;;;;;;;7.75;7.00;;;;;-147.17;100.00;50533.00;5012733;28;51478;-58
2022/01/31 00:20:35;;;;;;;;;9.50;8.50;;;;;-147.17;100.00;50552.69;5009716;28;53026;-58
2022/01/31 00:23:01;;;;;;;;;10.50;9.50;;;;;-147.17;100.00;50552.69;5012302;28;51264;-58
2022/01/31 00:25:26;;;;;;;;;10.50;8.75;;;;;-147.17;100.00;50560.56;5010967;28;51544;-58
2022/01/31 00:27:52;;;;;;;;;6.75;6.25;;;;;-147.17;100.00;50519.22;4995994;28;51130;-58
2022/01/31 00:30:17;;;;;;;;;7.25;7.25;;;;;-147.17;100.00;50566.47;4992608;28;54379;-59
2022/01/31 00:32:43;;;;;;;;;9.50;8.75;;;;;-147.17;100.00;50538.91;5012607;28;51026;-59
2022/01/31 00:35:09;;;;;;;;;16.50;9.75;;;;;-147.17;99.76;50582.22;5010749;28;50888;-59
2022/01/31 00:37:35;;;;;;;;;11.00;8.75;;;;;-147.17;100.00;50548.75;5013240;28;51293;-58
2022/01/31 00:40:02;;;;;;;;;9.75;8.00;;;;;-147.17;100.00;50544.81;5010687;28;51766;-59
2022/01/31 00:42:29;;;;;;;;;7.50;6.00;;;;;-147.17;100.00;50568.44;5009880;28;51197;-59
2022/01/31 00:44:58;;;;;;;;;7.25;6.50;;;;;-147.17;99.95;50533.00;5011230;28;50950;-57
2022/01/31 00:47:30;;;;;;;;;8.00;8.00;;;;;-147.17;100.00;50519.22;5010173;28;50941;-57
2022/01/31 00:50:10;;;;;;;;;6.25;6.25;;;;;-147.17;100.00;50525.13;5011163;28;51109;-58
2022/01/31 00:52:38;;;;;;;;;7.00;6.00;;;;;-147.17;100.00;50554.66;5012678;28;51177;-58
2022/01/31 00:55:05;;;;;;;;;8.00;6.00;;;;;-147.17;100.00;50568.44;5010943;28;51193;-58
2022/01/31 00:57:31;;;;;;;;;4.00;4.00;;;;;-147.17;100.00;50533.00;5012939;28;51383;-58
2022/01/31 00:59:57;;;;;;;;;4.50;4.25;;;;;-147.17;100.00;50540.88;5010343;28;52917;-57
2022/01/31 01:02:24;;;;;;;;;4.75;4.00;;;;;-147.17;100.00;50566.47;5000032;28;51247;-58
2022/01/31 01:04:51;;;;;;;;;8.75;8.50;;;;;-147.17;100.00;50568.44;4992603;28;51165;-58
2022/01/31 01:07:19;;;;;;;;;7.00;4.75;;;;;-147.17;99.65;50544.81;5012776;28;51639;-58
2022/01/31 01:09:45;;;;;;;;;5.25;4.50;;;;;-147.17;99.12;50568.44;4992490;28;53068;-57
2022/01/31 01:12:13;;;;;;;;;7.00;4.50;;;;;-147.17;98.94;50562.53;5011510;28;51250;-58
2022/01/31 01:14:39;;;;;;;;;4.75;4.00;;;;;-147.17;98.59;50560.56;5011145;28;50920;-58
2022/01/31 01:17:04;;;;;;;;;5.75;4.75;;;;;-147.17;98.15;50568.44;5012223;28;51030;-58
2022/01/31 01:19:30;;;;;;;;;3.25;3.00;;;;;-147.17;98.07;50576.31;5012777;28;51091;-59
2022/01/31 01:21:55;;;;;;;;;3.00;3.00;;;;;-147.17;98.60;50556.63;4991733;28;51178;-58
2022/01/31 01:24:21;;;;;;;;;1.75;1.75;;;;;-147.17;98.30;50568.44;5012113;28;51182;-58
2022/01/31 01:26:48;;;;;;;;;6.00;4.75;;;;;-147.17;98.65;50568.44;5009676;28;51139;-60
2022/01/31 01:29:14;;;;;;;;;4.00;3.50;;;;;-147.17;99.41;50540.88;5012505;28;50934;-59
2022/01/31 01:31:39;;;;;;;;;3.25;2.50;;;;;-147.17;99.21;50548.75;4985510;28;51194;-59
2022/01/31 01:34:05;;;;;;;;;4.50;2.50;;;;;-147.17;99.60;50564.50;4971782;28;51164;-59
2022/01/31 01:36:32;;;;;;;;;3.75;3.75;;;;;-147.17;99.04;50568.44;4963685;28;51036;-57
2022/01/31 01:38:58;;;;;;;;;2.25;2.00;;;;;-147.17;98.96;50582.22;4967618;28;53206;-57
2022/01/31 01:41:24;;;;;;;;;3.75;2.75;;;;;-147.17;99.04;50566.47;4969951;28;51095;-58
2022/01/31 01:43:50;;;;;;;;;2.75;2.75;;;;;-147.17;98.62;50556.63;4972106;28;51248;-58
2022/01/31 01:46:15;;;;;;;;;2.25;2.00;;;;;-147.17;99.32;50550.72;4969591;28;51134;-58
2022/01/31 01:48:40;;;;;;;;;5.25;4.00;;;;;-147.17;99.70;50548.75;4972831;28;52207;-58
2022/01/31 01:51:06;;;;;;;;;3.50;3.50;;;;;-147.17;100.00;50536.94;4968801;28;51144;-59
2022/01/31 01:53:32;;;;;;;;;2.00;2.00;;;;;-147.17;100.00;50576.31;4971468;28;51242;-58
2022/01/31 01:55:58;;;;;;;;;3.00;3.00;;;;;-147.17;100.00;50562.53;4968870;28;51237;-56
2022/01/31 01:58:25;;;;;;;;;5.25;4.00;;;;;-147.17;100.00;50533.00;4970714;28;51103;-57
2022/01/31 02:00:59;;;;;;;;;4.00;3.00;;;;;-147.17;100.00;50544.81;4969359;28;51068;-58
2022/01/31 02:03:27;;;;;;;;;3.50;3.00;;;;;-147.17;100.00;50548.75;4971695;28;51087;-57
2022/01/31 02:05:53;;;;;;;;;3.00;2.00;;;;;-147.17;100.00;50536.94;4968827;28;51010;-60
2022/01/31 02:08:20;;;;;;;;;5.25;2.00;;;;;-147.17;100.00;50562.53;4972161;28;52286;-58
2022/01/31 02:10:46;;;;;;;;;4.00;3.00;;;;;-147.17;100.00;50533.00;4968967;28;51164;-58
2022/01/31 02:13:15;;;;;;;;;2.50;2.50;;;;;-147.17;100.00;50536.94;4971695;28;51373;-58
2022/01/31 02:15:43;;;;;;;;;5.00;4.00;;;;;-147.17;100.00;50529.06;4966955;28;51220;-58
2022/01/31 02:18:08;;;;;;;;;4.25;3.50;;;;;-147.17;100.00;50540.88;4984958;28;52579;-58
2022/01/31 02:20:39;;;;;;;;;2.75;2.75;;;;;-147.17;100.00;50533.00;4980196;28;51149;-58
2022/01/31 02:23:09;;;;;;;;;3.50;3.00;;;;;-147.17;100.00;50546.78;4952785;28;51070;-58
2022/01/31 02:25:57;;;;;;;;;4.00;3.00;;;;;-147.17;100.00;50521.19;4966942;28;51215;-58
2022/01/31 02:28:24;;;;;;;;;3.00;3.00;;;;;-147.17;100.00;50546.78;4968932;28;52197;-58
2022/01/31 02:30:49;;;;;;;;;4.00;3.00;;;;;-147.17;100.00;50511.34;4952522;28;51146;-57
2022/01/31 02:33:15;;;;;;;;;5.25;3.00;;;;;-147.17;100.00;50517.25;5004340;28;51560;-58
2022/01/31 02:35:40;;;;;;;;;4.25;2.25;;;;;-147.17;100.00;50533.00;5009488;28;51371;-57
2022/01/31 02:38:05;;;;;;;;;2.25;2.00;;;;;-147.17;100.00;50515.28;4993342;28;51064;-57
2022/01/31 02:40:31;;;;;;;;;5.00;3.00;;;;;-147.17;100.00;50521.19;5008626;28;51106;-57
2022/01/31 02:42:56;;;;;;;;;3.00;3.00;;;;;-147.17;100.00;50519.22;5011789;28;50882;-57
2022/01/31 02:45:22;;;;;;;;;2.33;2.33;;;;;-147.17;100.00;50517.25;5008662;28;51370;-57
2022/01/31 02:47:54;;;;;;;;;3.00;3.00;;;;;-147.17;100.00;50495.59;5011652;28;52975;-57
2022/01/31 02:50:20;;;;;;;;;2.75;2.75;;;;;-147.17;100.00;50493.63;5002042;28;51378;-57
2022/01/31 02:52:49;;;;;;;;;1.33;1.00;;;;;-147.17;100.00;50501.50;5011704;28;50998;-57
2022/01/31 02:55:16;;;;;;;;;1.00;0.33;;;;;-147.17;100.00;50485.75;4988535;28;51210;-58
2022/01/31 02:57:42;;;;;;;;;2.25;1.00;;;;;-147.17;100.00;50485.75;5005839;28;51321;-57
2022/01/31 03:00:10;;;;;;;;;3.00;2.00;;;;;-147.17;100.00;50473.94;5007188;28;51895;-57
2022/01/31 03:02:36;;;;;;;;;3.33;2.67;;;;;-147.17;100.00;50497.56;4977172;28;50994;-57
2022/01/31 03:05:02;;;;;;;;;2.00;2.00;;;;;-147.17;100.00;50485.75;5008486;28;51265;-58
2022/01/31 03:07:30;;;;;;;;;1.00;1.00;;;;;-147.17;100.00;50464.09;5010286;28;52586;-57
2022/01/31 03:09:55;;;;;;;;;1.00;1.00;;;;;-147.17;100.00;50454.25;5011624;28;51262;-58
2022/01/31 03:12:22;;;;;;;;;2.67;2.00;;;;;-147.17;100.00;50471.97;4994349;28;51116;-57
2022/01/31 03:14:47;;;;;;;;;5.33;2.33;;;;;-147.17;100.00;50491.66;5011983;28;51137;-58
2022/01/31 03:17:13;;;;;;;;;1.67;1.00;;;;;-147.17;100.00;50513.31;5013243;28;51859;-57
2022/01/31 03:19:40;;;;;;;;;2.00;2.00;;;;;-147.17;100.00;50485.75;5012370;28;51093;-58
2022/01/31 03:22:06;;;;;;;;;3.00;2.00;;;;;-147.17;100.00;50489.69;5012951;28;51078;-58
2022/01/31 03:24:33;;;;;;;;;1.00;1.00;;;;;-147.17;100.00;50460.16;5012900;28;51234;-61
2022/01/31 03:26:58;;;;;;;;;3.00;2.00;;;;;-147.17;100.00;50473.94;5009771;28;51708;-58
2022/01/31 03:29:24;;;;;;;;;3.00;3.00;;;;;-147.17;100.00;50462.13;5010555;28;51195;-58
2022/01/31 03:31:49;;;;;;;;;1.33;1.00;;;;;-147.17;100.00;50456.22;5011118;28;51102;-58
2022/01/31 03:34:15;;;;;;;;;3.00;2.00;;;;;-147.17;100.00;50444.41;5013942;28;51304;-58
2022/01/31 03:36:40;;;;;;;;;3.25;2.00;;;;;-147.17;100.00;50446.38;5011390;28;51825;-58
2022/01/31 03:39:05;;;;;;;;;2.00;2.00;;;;;-147.17;100.00;50446.38;5014416;28;51002;-58
2022/01/31 03:41:31;;;;;;;;;1.00;1.00;;;;;-147.17;100.00;50462.13;5011479;28;51158;-58
2022/01/31 03:43:56;;;;;;;;;1.00;1.00;;;;;-147.17;100.00;50430.63;5014713;28;51458;-58
2022/01/31 03:46:23;;;;;;;;;2.00;1.67;;;;;-147.17;100.00;50442.44;5011504;28;52777;-57
2022/01/31 03:48:49;;;;;;;;;2.67;1.67;;;;;-147.17;100.00;50422.75;5013026;28;51325;-58
2022/01/31 03:51:14;;;;;;;;;1.67;1.00;;;;;-147.17;100.00;50412.91;5010768;28;51146;-59
2022/01/31 03:53:40;;;;;;;;;1.00;1.00;;;;;-147.17;100.00;50436.53;5014201;28;51323;-59
2022/01/31 03:56:05;;;;;;;;;1.00;1.00;;;;;-147.17;100.00;50410.94;5010987;28;51996;-59
2022/01/31 03:58:30;;;;;;;;;2.00;2.00;;;;;-147.17;100.00;50422.75;5014315;28;50976;-59
2022/01/31 04:00:56;;;;;;;;;2.00;1.00;;;;;-147.17;100.00;50407.00;5008153;28;51129;-58
2022/01/31 04:03:21;;;;;;;;;0.00;0.00;;;;;-147.17;100.00;50381.41;5014078;28;51403;-58
2022/01/31 04:05:46;;;;;;;;;3.00;1.67;;;;;-147.17;100.00;50401.09;5010226;28;51732;-58
2022/01/31 04:08:12;;;;;;;;;1.00;1.00;;;;;-147.17;100.00;50371.56;5014165;28;50960;-59
2022/01/31 04:10:38;;;;;;;;;1.00;0.33;;;;;-147.17;100.00;50395.19;5008408;28;51521;-58
2022/01/31 04:13:08;;;;;;;;;0.00;0.00;;;;;-147.17;100.00;50365.66;5013695;28;50848;-58
2022/01/31 04:15:39;;;;;;;;;1.00;1.00;;;;;-147.17;100.00;50367.63;4989658;28;53876;-58
2022/01/31 04:18:04;;;;;;;;;0.67;0.00;;;;;-147.17;100.00;50371.56;5011731;28;51086;-58
2022/01/31 04:20:30;;;;;;;;;0.00;0.00;;;;;-147.17;100.00;50379.44;5007328;28;51172;-60
2022/01/31 04:23:00;;;;;;;;;1.00;1.00;;;;;-147.17;100.00;50328.25;4991603;28;51316;-58
2022/01/31 04:25:30;;;;;;;;;1.00;1.00;;;;;-147.17;100.00;50359.75;5013987;28;51870;-58
2022/01/31 04:28:03;;;;;;;;;0.00;0.00;;;;;-147.17;100.00;50367.63;5012084;28;51178;-58
2022/01/31 04:30:35;;;;;;;;;1.00;1.00;;;;;-147.17;100.00;50355.81;5011505;28;51006;-58
2022/01/31 04:33:00;;;;;;;;;0.00;0.00;;;;;-147.17;100.00;50359.75;5013652;28;51180;-59
2022/01/31 04:35:26;;;;;;;;;0.00;0.00;;;;;-147.17;100.00;50369.59;5012125;28;51470;-59
2022/01/31 04:37:51;;;;;;;;;0.33;0.33;;;;;-147.17;100.00;50347.94;5013633;28;51156;-58
2022/01/31 04:40:16;;;;;;;;;1.33;1.33;;;;;-147.17;100.00;50347.94;5013427;28;51168;-58
2022/01/31 04:42:43;;;;;;;;;1.00;1.00;;;;;-147.17;100.00;50340.06;5012992;28;50938;-58
2022/01/31 04:45:09;;;;;;;;;1.00;1.00;;;;;-147.17;100.00;50365.66;5013123;28;52571;-58
2022/01/31 04:47:35;;;;;;;;;0.00;0.00;;;;;-147.17;100.00;50336.13;5013338;28;51480;-58
2022/01/31 04:50:00;;;;;;;;;1.00;1.00;;;;;-147.17;100.00;50359.75;5010720;28;51386;-58
2022/01/31 04:52:26;;;;;;;;;1.00;1.00;;;;;-147.17;100.00;50344.00;5011755;28;51824;-58
2022/01/31 04:54:51;;;;;;;;;2.00;1.00;;;;;-147.17;100.00;50328.25;5013568;28;52274;-58
2022/01/31 04:57:17;;;;;;;;;0.00;0.00;;;;;-147.17;100.00;50351.88;4994980;28;51305;-58
2022/01/31 04:59:43;;;;;;;;;1.00;1.00;;;;;-147.17;100.00;50322.34;5012952;28;51083;-58
2022/01/31 05:02:09;;;;;;;;;1.67;1.67;;;;;-147.17;100.00;50367.63;5012895;28;51230;-58
2022/01/31 05:04:34;;;;;;;;;1.00;1.00;;;;;-147.17;100.00;50357.78;5012328;28;51161;-58
2022/01/31 05:07:00;;;;;;;;;1.67;1.00;;;;;-147.17;100.00;50328.25;5013440;28;51138;-58
2022/01/31 05:09:25;;;;;;;;;15.75;15.25;;;;;-147.17;100.00;50326.28;5012771;28;51248;-58
2022/01/31 05:11:50;;;;;;;;;0.00;0.00;;;;;-147.17;100.00;50342.03;5010563;28;51369;-58
2022/01/31 05:14:17;;;;;;;;;0.00;0.00;;;;;-147.17;100.00;50375.50;5011996;28;51974;-58
2022/01/31 05:16:43;;;;;;;;;3.00;2.00;;;;;-147.17;100.00;50355.81;5010167;28;51135;-57
2022/01/31 05:19:08;;;;;;;;;1.00;1.00;;;;;-147.17;100.00;50424.72;5009971;28;51117;-58
2022/01/31 05:21:34;;;;;;;;;1.00;1.00;;;;;-147.17;100.00;50385.34;5013331;28;51078;-57
2022/01/31 05:23:59;;;;;;;;;1.33;1.33;;;;;-147.17;100.00;50414.88;5014430;28;52710;-58
2022/01/31 05:26:24;;;;;;;;;1.00;1.00;;;;;-147.17;100.00;50399.13;5011708;28;50869;-58
2022/01/31 05:28:50;;;;;;;;;1.00;1.00;;;;;-147.17;100.00;50430.63;5011972;28;51178;-58
2022/01/31 05:31:15;;;;;;;;;1.33;1.00;;;;;-147.17;100.00;50397.16;5012579;28;51191;-58
2022/01/31 05:33:40;;;;;;;;;1.00;1.00;;;;;-147.17;100.00;50422.75;5012279;28;51933;-58
2022/01/31 05:36:07;;;;;;;;;0.33;0.00;;;;;-147.17;100.00;50450.31;5011834;28;51113;-58
2022/01/31 05:38:35;;;;;;;;;2.67;1.00;;;;;-147.17;100.00;50408.97;5012010;28;50904;-56
2022/01/31 05:41:05;;;;;;;;;0.67;0.67;;;;;-147.17;100.00;50444.41;5010457;28;51350;-59
2022/01/31 05:43:31;;;;;;;;;2.00;2.00;;;;;-147.17;100.00;50442.44;5011064;28;52063;-58
2022/01/31 05:45:56;;;;;;;;;1.00;1.00;;;;;-147.17;100.00;50432.59;5012027;28;51173;-58
2022/01/31 05:48:21;;;;;;;;;1.00;1.00;;;;;-147.17;100.00;50454.25;5012015;28;51177;-58
2022/01/31 05:50:47;;;;;;;;;1.00;1.00;;;;;-147.17;100.00;50473.94;5011440;28;51137;-58
2022/01/31 05:53:12;;;;;;;;;1.75;0.75;;;;;-147.17;100.00;50458.19;5011977;28;52618;-57
2022/01/31 05:55:40;;;;;;;;;0.33;0.33;;;;;-147.17;100.00;50462.13;5010780;28;51235;-57
2022/01/31 05:58:06;;;;;;;;;1.00;1.00;;;;;-147.17;100.00;50513.31;5011981;28;51181;-58
2022/01/31 06:00:32;;;;;;;;;1.33;1.33;;;;;-147.17;100.00;50497.56;5010328;28;51217;-59
2022/01/31 06:02:58;;;;;;;;;4.00;3.00;;;;;-147.17;100.00;50521.19;5011310;28;51982;-58
2022/01/31 06:05:24;;;;;;;;;1.00;0.00;;;;;-147.17;100.00;50521.19;5011848;28;51100;-59
2022/01/31 06:07:50;;;;;;;;;1.67;1.33;;;;;-147.17;100.00;50507.41;5012128;28;50999;-58
2022/01/31 06:10:16;;;;;;;;;0.67;0.67;;;;;-147.17;100.00;50523.16;5012273;28;51106;-61
2022/01/31 06:12:42;;;;;;;;;0.25;0.25;;;;;-147.17;100.00;50499.53;5011817;28;52874;-58
2022/01/31 06:15:08;;;;;;;;;0.33;0.00;;;;;-147.17;100.00;50525.13;5010223;28;51145;-59
2022/01/31 06:17:34;;;;;;;;;3.33;1.67;;;;;-147.17;100.00;50497.56;4994430;28;51001;-58
2022/01/31 06:19:59;;;;;;;;;2.00;2.00;;;;;-147.17;100.00;50509.38;4993867;28;51185;-59
2022/01/31 06:22:24;;;;;;;;;1.00;0.67;;;;;-147.17;100.00;50507.41;5007467;28;51887;-58
2022/01/31 06:24:50;;;;;;;;;2.00;2.00;;;;;-147.17;100.00;50519.22;5008179;28;51302;-60
2022/01/31 06:27:16;;;;;;;;;2.67;2.00;;;;;-147.17;100.00;50517.25;5011515;28;51026;-60
2022/01/31 06:29:42;;;;;;;;;1.00;1.00;;;;;-147.17;100.00;50505.44;5011038;28;51396;-58
2022/01/31 06:32:07;;;;;;;;;1.00;1.00;;;;;-147.17;100.00;50523.16;5009670;28;51987;-57
2022/01/31 06:34:33;;;;;;;;;2.00;1.00;;;;;-147.17;100.00;50479.84;5010784;28;51606;-58
2022/01/31 06:37:02;;;;;;;;;1.00;0.00;;;;;-147.17;100.00;50544.81;5010191;28;51472;-58
2022/01/31 06:39:28;;;;;;;;;1.00;1.00;;;;;-147.17;100.00;50517.25;5011205;28;51722;-58
2022/01/31 06:41:53;;;;;;;;;0.00;0.00;;;;;-147.17;100.00;50509.38;5010736;28;51334;-58
2022/01/31 06:44:19;;;;;;;;;2.00;1.00;;;;;-147.17;100.00;50544.81;5013263;28;52679;-58
2022/01/31 06:46:44;;;;;;;;;3.00;2.00;;;;;-147.17;100.00;50525.13;5014584;28;50994;-58
2022/01/31 06:49:09;;;;;;;;;1.00;1.00;;;;;-147.17;100.00;50525.13;5012332;28;54270;-59
2022/01/31 06:51:35;;;;;;;;;0.00;0.00;;;;;-147.17;100.00;50529.06;5014487;28;51718;-59
2022/01/31 06:54:01;;;;;;;;;1.00;1.00;;;;;-147.17;100.00;50501.50;5014141;28;52276;-59
2022/01/31 06:56:30;;;;;;;;;1.67;1.00;;;;;-147.17;100.00;50576.31;5014353;28;51182;-58
2022/01/31 06:58:57;;;;;;;;;1.67;1.67;;;;;-147.17;100.00;50558.59;5013333;28;51245;-59
2022/01/31 07:01:25;;;;;;;;;2.00;1.00;;;;;-147.17;100.00;50568.44;5013865;28;51744;-59
2022/01/31 07:03:53;;;;;;;;;1.00;1.00;;;;;-147.17;100.00;50562.53;5013676;28;51272;-59
2022/01/31 07:06:18;;;;;;;;;1.00;1.00;;;;;-147.17;100.00;50564.50;5008835;28;51101;-59
2022/01/31 07:08:43;;;;;;;;;2.00;2.00;;;;;-147.17;100.00;50560.56;5014377;28;51197;-59
2022/01/31 07:11:14;;;;;;;;;3.00;3.00;;;;;-147.17;100.00;50568.44;5013146;28;52630;-59
2022/01/31 07:13:39;;;;;;;;;1.33;1.00;;;;;-147.17;100.00;50558.59;5014041;28;51244;-59
2022/01/31 07:16:05;;;;;;;;;3.00;1.50;;;;;-147.17;100.00;50546.78;5013508;28;51157;-58
2022/01/31 07:18:33;;;;;;;;;2.00;1.00;;;;;-147.17;100.00;50554.66;5013103;28;51216;-58
2022/01/31 07:20:58;;;;;;;;;3.00;2.00;;;;;-147.17;100.00;50548.75;5012715;28;52449;-58
2022/01/31 07:23:27;;;;;;;;;2.00;2.00;;;;;-147.17;100.00;50544.81;5009242;28;51932;-58
2022/01/31 07:25:54;;;;;;;;;2.00;2.00;;;;;-147.17;100.00;50558.59;5013316;28;51021;-58
2022/01/31 07:28:20;;;;;;;;;4.00;3.00;;;;;-147.17;100.00;50519.22;5013505;28;51254;-58
2022/01/31 07:30:50;;;;;;;;;2.00;1.33;;;;;-147.17;100.00;50556.63;5012748;28;51010;-58
2022/01/31 07:33:18;;;;;;;;;1.67;1.00;;;;;-147.17;100.00;50572.38;5009516;28;51117;-58
2022/01/31 07:35:46;;;;;;;;;0.00;0.00;;;;;-147.17;100.00;50592.06;5012375;28;51359;-58
2022/01/31 07:38:12;;;;;;;;;2.00;2.00;;;;;-147.17;100.00;50570.41;5014486;28;51135;-58
2022/01/31 07:40:39;;;;;;;;;2.00;1.67;;;;;-147.17;100.00;50562.53;5010824;28;51086;-58
2022/01/31 07:43:04;;;;;;;;;0.00;0.00;;;;;-147.17;100.00;50568.44;5013829;28;51150;-57
2022/01/31 07:45:30;;;;;;;;;2.00;2.00;;;;;-147.17;100.00;50558.59;5014109;28;51293;-58
2022/01/31 07:47:56;;;;;;;;;2.00;0.00;;;;;-147.17;100.00;50552.69;5014234;28;51101;-57
2022/01/31 07:50:21;;;;;;;;;2.00;2.00;;;;;-147.17;100.00;50566.47;5012475;28;52153;-60
2022/01/31 07:52:46;;;;;;;;;1.67;1.67;;;;;-147.17;100.00;50562.53;5010693;28;50989;-59
2022/01/31 07:55:12;;;;;;;;;4.75;3.50;;;;;-147.17;100.00;50576.31;5006722;28;51192;-60
2022/01/31 07:57:40;;;;;;;;;2.00;1.00;;;;;-147.17;100.00;50586.16;5013153;28;51344;-60
2022/01/31 08:00:06;;;;;;;;;2.00;1.00;;;;;-147.17;100.00;50594.03;5013400;28;51167;-60
2022/01/31 08:02:32;;;;;;;;;1.00;1.00;;;;;-147.17;100.00;50578.28;4995692;28;51161;-62
2022/01/31 08:04:58;;;;;;;;;2.00;1.33;;;;;-147.17;100.00;50568.44;5013049;28;51065;-60
2022/01/31 08:07:23;;;;;;;;;2.33;2.00;;;;;-147.17;100.00;50584.19;5009157;28;51387;-60
2022/01/31 08:09:49;;;;;;;;;1.00;1.00;;;;;-147.17;100.00;50560.56;5012742;28;51569;-61
2022/01/31 08:12:14;;;;;;;;;3.50;2.75;;;;;-147.17;100.00;50580.25;5000598;28;51042;-62
2022/01/31 08:14:40;;;;;;;;;1.00;0.00;;;;;-147.17;100.00;50603.88;4996851;28;51024;-63
2022/01/31 08:17:05;;;;;;;;;2.00;0.33;;;;;-147.17;100.00;50584.19;4996423;28;51293;-62
2022/01/31 08:19:31;;;;;;;;;1.00;1.00;;;;;-147.17;99.87;50603.88;5011701;28;52010;-59
2022/01/31 08:21:56;;;;;;;;;1.00;1.00;;;;;-147.17;99.89;50599.94;5013640;28;51036;-60
2022/01/31 08:24:22;;;;;;;;;2.00;1.00;;;;;-147.17;99.84;50586.16;5013256;28;51201;-63
2022/01/31 08:26:47;;;;;;;;;1.00;1.00;;;;;-147.17;99.22;50599.94;5010205;28;51004;-63
2022/01/31 08:29:28;;;;;;;;;1.00;1.00;;;;;-147.17;98.79;50580.25;5010149;28;51058;-60
2022/01/31 08:31:54;;;;;;;;;0.67;0.67;;;;;-147.17;98.79;50599.94;4985911;28;51885;-63
2022/01/31 08:36:49;;;;;;;;;1.00;1.00;;;;;-147.17;98.26;50611.75;5012456;28;51089;-62
2022/01/31 08:39:21;;;;;;;;;6.50;4.25;;;;;-147.17;98.27;50588.13;5013219;28;51316;-62
2022/01/31 08:41:51;;;;;;;;;3.00;2.25;;;;;-147.17;98.82;50651.13;5013490;28;51279;-62
2022/01/31 08:44:20;;;;;;;;;1.00;1.00;;;;;-147.17;98.00;50607.81;5013080;28;51381;-62
2022/01/31 08:46:50;;;;;;;;;3.00;2.67;;;;;-147.17;98.62;50621.59;4996207;28;50950;-63
2022/01/31 08:49:16;;;;;;;;;9.75;4.25;;;;;-147.17;98.42;50631.44;5012732;28;51097;-63
2022/01/31 08:51:43;;;;;;;;;3.00;2.25;;;;;-147.17;97.88;50633.41;4995702;28;51099;-63
2022/01/31 08:54:10;;;;;;;;;2.00;2.00;;;;;-147.17;97.48;50635.38;5013554;28;51089;-63
2022/01/31 08:56:40;;;;;;;;;3.25;2.00;;;;;-147.17;97.17;50635.38;5013642;28;51349;-63
2022/01/31 08:59:12;;;;;;;;;2.00;2.00;;;;;-147.17;96.75;50597.97;5013267;28;52001;-63
2022/01/31 09:01:38;;;;;;;;;4.00;3.00;;;;;-147.17;97.49;50584.19;4996226;28;51138;-63
2022/01/31 09:04:05;;;;;;;;;3.33;2.00;;;;;-147.17;97.89;50599.94;5013007;28;51178;-63
2022/01/31 09:06:33;;;;;;;;;3.00;1.67;;;;;-147.17;98.30;50601.91;5011011;28;51398;-62
2022/01/31 09:09:00;;;;;;;;;2.33;1.00;;;;;-147.17;97.01;50615.69;5012932;28;52978;-62
2022/01/31 09:11:28;;;;;;;;;2.67;2.67;;;;;-147.17;98.02;50615.69;5013083;28;51178;-62
2022/01/31 09:13:53;;;;;;;;;20.50;18.25;;;;;-147.17;96.34;50641.28;4995269;28;51205;-62
2022/01/31 09:16:19;;;;;;;;;3.00;2.67;;;;;-147.17;95.71;50641.28;5013254;28;51407;-62
2022/01/31 09:18:45;;;;;;;;;4.67;3.00;;;;;-147.17;95.09;50670.81;5012444;28;51029;-63
2022/01/31 09:21:10;;;;;;;;;1.67;1.33;;;;;-147.17;94.36;50653.09;5013271;28;51019;-62
2022/01/31 09:23:37;;;;;;;;;2.33;2.00;;;;;-147.17;93.53;50672.78;5013118;28;51188;-63
2022/01/31 09:26:03;;;;;;;;;2.67;2.00;;;;;-147.17;93.06;50670.81;5013228;28;50854;-62
2022/01/31 09:28:28;;;;;;;;;2.00;2.00;;;;;-147.17;91.37;50698.38;5011261;28;52097;-62
2022/01/31 09:30:55;;;;;;;;;2.33;2.00;;;;;-147.17;91.46;50704.28;5012559;28;50933;-63
2022/01/31 09:33:20;;;;;;;;;2.00;2.00;;;;;-147.17;92.30;50678.69;5012519;28;51114;-62
2022/01/31 09:35:46;;;;;;;;;2.00;2.00;;;;;-147.17;91.89;50682.63;5012717;28;51182;-62
2022/01/31 09:38:14;;;;;;;;;2.00;2.00;;;;;-147.17;91.77;50676.72;4994670;28;51112;-62
2022/01/31 09:40:41;;;;;;;;;3.00;1.00;;;;;-147.17;92.13;50670.81;5012948;28;51274;-62
2022/01/31 09:48:38;;;;;;;;;3.33;2.00;;;;;-147.17;90.68;50698.38;5011937;28;51801;-62
2022/01/31 09:51:08;;;;;;;;;2.00;2.00;;;;;-147.17;89.31;50686.56;5012756;28;50825;-62
2022/01/31 09:53:38;;;;;;;;;2.67;2.00;;;;;-147.17;87.89;50741.69;5012528;28;51016;-62
2022/01/31 09:56:07;;;;;;;;;1.00;1.00;;;;;-147.17;87.59;50755.47;5012698;28;51135;-62
2022/01/31 09:58:32;;;;;;;;;3.00;2.33;;;;;-147.17;88.12;50686.56;5011772;28;52587;-62
2022/01/31 10:01:07;;;;;;;;;2.33;1.00;;;;;-147.17;88.20;50706.25;5012769;28;51389;-61
2022/01/31 10:03:32;;;;;;;;;4.00;3.00;;;;;-147.17;88.43;50733.81;5011894;28;51093;-62
2022/01/31 10:05:58;;;;;;;;;2.00;2.00;;;;;-147.17;86.59;50731.84;5012386;28;51157;-62
2022/01/31 10:08:29;;;;;;;;;3.00;2.00;;;;;-147.17;86.38;50751.53;5012073;28;51926;-62
2022/01/31 10:11:00;;;;;;;;;3.00;2.00;;;;;-147.17;87.46;50720.03;4978016;28;51138;-63
2022/01/31 10:16:32;;;;;;;;;1.33;1.33;;;;;-147.17;84.84;50725.94;5012238;28;51184;-62
2022/01/31 10:19:18;;;;;;;;;5.00;4.00;;;;;-147.17;84.22;50749.56;5010900;28;53196;-62
2022/01/31 10:22:02;;;;;;;;;0.67;0.67;;;;;-147.17;85.11;50727.91;5010103;28;50965;-62
2022/01/31 10:24:31;;;;;;;;;1.67;1.67;;;;;-147.17;84.68;50743.66;5012109;28;50943;-62
2022/01/31 10:27:05;;;;;;;;;2.33;2.33;;;;;-147.17;84.57;50741.69;4994555;28;51312;-62
2022/01/31 10:29:30;;;;;;;;;2.00;2.00;;;;;-147.17;83.96;50806.66;5001567;28;52587;-63
2022/01/31 10:32:01;;;;;;;;;2.00;2.00;;;;;-147.17;83.73;50761.38;5009696;28;51520;-62
2022/01/31 10:34:28;;;;;;;;;2.00;1.67;;;;;-147.17;81.80;50781.06;4994372;28;51043;-62
2022/01/31 10:36:53;;;;;;;;;2.67;2.00;;;;;-147.17;83.47;50786.97;5012697;28;50966;-63
2022/01/31 10:53:55;;;;;;;;;2.33;2.00;;;;;-147.17;84.73;50729.88;4950817;28;50957;-62
2022/01/31 10:56:20;;;;;;;;;1.67;1.67;;;;;-147.17;83.63;50773.19;5007136;28;51113;-64
2022/01/31 10:59:01;;;;;;;;;1.00;1.00;;;;;-147.17;83.43;50779.09;5012120;28;51384;-63
2022/01/31 11:01:28;;;;;;;;;6.00;3.00;;;;;-147.17;83.99;50804.69;5011514;28;51133;-62
2022/01/31 11:03:54;;;;;;;;;2.67;2.33;;;;;-147.17;81.67;50842.09;5007002;28;51263;-63
2022/01/31 11:06:22;;;;;;;;;2.67;2.00;;;;;-147.17;81.90;50938.56;5007833;28;51346;-63
2022/01/31 11:08:48;;;;;;;;;1.33;1.00;;;;;-147.17;81.87;50869.66;5009984;28;51382;-63
2022/01/31 11:11:14;;;;;;;;;4.00;4.00;;;;;-147.17;78.74;51011.41;5016471;28;51929;-63
2022/01/31 11:13:39;;;;;;;;;2.00;2.00;;;;;-147.17;72.65;51135.44;5010678;28;51300;-62
2022/01/31 11:16:08;;;;;;;;;2.00;1.00;;;;;-147.17;70.34;51121.66;5011368;28;51199;-62
2022/01/31 11:18:35;;;;;;;;;2.00;2.00;;;;;-147.17;70.37;51033.06;5008744;28;51117;-62
2022/01/31 11:21:07;;;;;;;;;4.00;4.00;;;;;-147.17;71.74;51033.06;5009165;28;53094;-62
2022/01/31 11:23:40;;;;;;;;;1.67;1.67;;;;;-147.17;70.66;51013.38;5009437;28;51179;-62
2022/01/31 11:26:09;;;;;;;;;2.00;2.00;;;;;-147.17;72.01;50991.72;5009826;28;51208;-62
2022/01/31 11:28:38;;;;;;;;;3.33;2.00;;;;;-147.17;71.98;50989.75;5007164;28;51333;-62
2022/01/31 11:31:04;;;;;;;;;1.67;1.67;;;;;-147.17;70.98;51015.34;5010714;28;52752;-62
2022/01/31 11:33:30;;;;;;;;;2.00;2.00;;;;;-147.17;71.91;50989.75;5010725;28;50954;-62
2022/01/31 11:35:56;;;;;;;;;3.00;2.33;;;;;-147.17;73.06;50930.69;5011592;28;51043;-61